sensor_id;sensor_type;location;lat;lon;timestamp;temperature;humidity
9237;DHT22;24579;42.810;23.214;2022-09-13T00:01:45;11.50;99.90
9237;DHT22;24579;42.810;23.214;2022-09-13T00:04:13;11.60;99.90
9237;DHT22;24579;42.810;23.214;2022-09-13T00:06:40;11.80;99.90
9237;DHT22;24579;42.810;23.214;2022-09-13T00:09:07;11.70;99.90
9237;DHT22;24579;42.810;23.214;2022-09-13T00:11:34;11.80;99.90
9237;DHT22;24579;42.810;23.214;2022-09-13T00:14:01;11.90;99.90
9237;DHT22;24579;42.810;23.214;2022-09-13T00:16:29;12.00;99.90
9237;DHT22;24579;42.810;23.214;2022-09-13T00:18:56;12.20;99.90
9237;DHT22;24579;42.810;23.214;2022-09-13T00:21:26;12.30;99.90
9237;DHT22;24579;42.810;23.214;2022-09-13T00:23:54;12.20;99.90
9237;DHT22;24579;42.810;23.214;2022-09-13T00:26:23;12.20;99.90
9237;DHT22;24579;42.810;23.214;2022-09-13T00:28:50;12.20;99.90
9237;DHT22;24579;42.810;23.214;2022-09-13T00:31:18;12.20;99.90
9237;DHT22;24579;42.810;23.214;2022-09-13T00:33:46;12.20;99.90
9237;DHT22;24579;42.810;23.214;2022-09-13T00:36:13;12.30;99.90
9237;DHT22;24579;42.810;23.214;2022-09-13T00:38:42;12.40;99.90
9237;DHT22;24579;42.810;23.214;2022-09-13T00:41:13;12.40;99.90
9237;DHT22;24579;42.810;23.214;2022-09-13T00:43:44;12.60;99.90
9237;DHT22;24579;42.810;23.214;2022-09-13T00:46:16;12.70;99.90
9237;DHT22;24579;42.810;23.214;2022-09-13T00:48:45;12.70;99.90
9237;DHT22;24579;42.810;23.214;2022-09-13T00:51:13;12.60;99.90
9237;DHT22;24579;42.810;23.214;2022-09-13T00:53:44;12.50;99.90
9237;DHT22;24579;42.810;23.214;2022-09-13T00:56:16;12.30;99.90
9237;DHT22;24579;42.810;23.214;2022-09-13T00:58:47;12.20;99.90
9237;DHT22;24579;42.810;23.214;2022-09-13T01:01:16;12.20;99.90
9237;DHT22;24579;42.810;23.214;2022-09-13T01:03:46;12.10;99.90
9237;DHT22;24579;42.810;23.214;2022-09-13T01:06:16;12.00;99.90
9237;DHT22;24579;42.810;23.214;2022-09-13T01:08:48;12.20;99.90
9237;DHT22;24579;42.810;23.214;2022-09-13T01:11:21;12.10;99.90
9237;DHT22;24579;42.810;23.214;2022-09-13T01:13:52;12.30;99.90
9237;DHT22;24579;42.810;23.214;2022-09-13T01:16:20;12.30;99.90
9237;DHT22;24579;42.810;23.214;2022-09-13T01:18:47;12.40;99.90
9237;DHT22;24579;42.810;23.214;2022-09-13T01:24:48;12.50;99.90
9237;DHT22;24579;42.810;23.214;2022-09-13T01:27:32;12.60;99.90
9237;DHT22;24579;42.810;23.214;2022-09-13T01:30:16;12.50;99.90
9237;DHT22;24579;42.810;23.214;2022-09-13T01:33:09;12.50;99.90
9237;DHT22;24579;42.810;23.214;2022-09-13T01:36:02;12.50;99.90
9237;DHT22;24579;42.810;23.214;2022-09-13T01:38:43;12.60;99.90
9237;DHT22;24579;42.810;23.214;2022-09-13T01:41:24;12.60;99.90
9237;DHT22;24579;42.810;23.214;2022-09-13T01:43:57;12.60;99.90
9237;DHT22;24579;42.810;23.214;2022-09-13T01:46:37;12.70;99.90
9237;DHT22;24579;42.810;23.214;2022-09-13T01:49:12;12.70;99.90
9237;DHT22;24579;42.810;23.214;2022-09-13T01:51:46;12.70;99.90
9237;DHT22;24579;42.810;23.214;2022-09-13T01:54:17;12.70;99.90
9237;DHT22;24579;42.810;23.214;2022-09-13T01:56:53;12.70;99.90
9237;DHT22;24579;42.810;23.214;2022-09-13T01:59:26;12.70;99.90
9237;DHT22;24579;42.810;23.214;2022-09-13T02:01:59;12.60;99.90
9237;DHT22;24579;42.810;23.214;2022-09-13T02:04:31;12.50;99.90
9237;DHT22;24579;42.810;23.214;2022-09-13T02:07:04;12.40;99.90
9237;DHT22;24579;42.810;23.214;2022-09-13T02:09:36;12.20;99.90
9237;DHT22;24579;42.810;23.214;2022-09-13T02:12:09;12.00;99.90
9237;DHT22;24579;42.810;23.214;2022-09-13T02:14:42;12.10;99.90
9237;DHT22;24579;42.810;23.214;2022-09-13T02:17:14;12.00;99.90
9237;DHT22;24579;42.810;23.214;2022-09-13T02:19:47;12.00;99.90
9237;DHT22;24579;42.810;23.214;2022-09-13T02:22:22;12.20;99.90
9237;DHT22;24579;42.810;23.214;2022-09-13T02:24:55;12.30;99.90
9237;DHT22;24579;42.810;23.214;2022-09-13T02:27:25;12.40;99.90
9237;DHT22;24579;42.810;23.214;2022-09-13T02:29:57;12.30;99.90
9237;DHT22;24579;42.810;23.214;2022-09-13T02:32:30;12.20;99.90
9237;DHT22;24579;42.810;23.214;2022-09-13T02:35:02;12.30;99.90
9237;DHT22;24579;42.810;23.214;2022-09-13T02:37:33;12.20;99.90
9237;DHT22;24579;42.810;23.214;2022-09-13T02:40:03;12.20;99.90
9237;DHT22;24579;42.810;23.214;2022-09-13T02:42:35;12.10;99.90
9237;DHT22;24579;42.810;23.214;2022-09-13T02:45:07;11.90;99.90
9237;DHT22;24579;42.810;23.214;2022-09-13T02:47:42;11.90;99.90
9237;DHT22;24579;42.810;23.214;2022-09-13T02:50:21;11.70;99.90
9237;DHT22;24579;42.810;23.214;2022-09-13T02:52:59;11.60;99.90
9237;DHT22;24579;42.810;23.214;2022-09-13T02:55:33;11.60;99.90
9237;DHT22;24579;42.810;23.214;2022-09-13T02:58:09;11.90;99.90
9237;DHT22;24579;42.810;23.214;2022-09-13T03:00:36;12.10;99.90
9237;DHT22;24579;42.810;23.214;2022-09-13T03:03:08;11.90;99.90
9237;DHT22;24579;42.810;23.214;2022-09-13T03:05:36;11.80;99.90
9237;DHT22;24579;42.810;23.214;2022-09-13T03:08:03;11.70;99.90
9237;DHT22;24579;42.810;23.214;2022-09-13T03:10:39;11.30;99.90
9237;DHT22;24579;42.810;23.214;2022-09-13T03:16:28;11.40;99.90
9237;DHT22;24579;42.810;23.214;2022-09-13T03:19:22;11.20;99.90
9237;DHT22;24579;42.810;23.214;2022-09-13T03:22:07;11.20;99.90
9237;DHT22;24579;42.810;23.214;2022-09-13T03:24:48;11.40;99.90
9237;DHT22;24579;42.810;23.214;2022-09-13T03:27:33;11.40;99.90
9237;DHT22;24579;42.810;23.214;2022-09-13T03:30:04;11.30;99.90
9237;DHT22;24579;42.810;23.214;2022-09-13T03:32:35;11.20;99.90
9237;DHT22;24579;42.810;23.214;2022-09-13T03:35:14;11.30;99.90
9237;DHT22;24579;42.810;23.214;2022-09-13T03:37:46;11.10;99.90
9237;DHT22;24579;42.810;23.214;2022-09-13T03:40:21;11.00;99.90
9237;DHT22;24579;42.810;23.214;2022-09-13T03:42:54;11.10;99.90
9237;DHT22;24579;42.810;23.214;2022-09-13T03:45:27;11.40;99.90
9237;DHT22;24579;42.810;23.214;2022-09-13T03:47:56;11.50;99.90
9237;DHT22;24579;42.810;23.214;2022-09-13T03:50:25;11.60;99.90
9237;DHT22;24579;42.810;23.214;2022-09-13T03:52:57;11.60;99.90
9237;DHT22;24579;42.810;23.214;2022-09-13T03:55:26;11.70;99.90
9237;DHT22;24579;42.810;23.214;2022-09-13T03:57:53;11.20;99.90
9237;DHT22;24579;42.810;23.214;2022-09-13T04:03:16;10.80;99.90
9237;DHT22;24579;42.810;23.214;2022-09-13T04:05:45;10.80;99.90
9237;DHT22;24579;42.810;23.214;2022-09-13T04:08:12;11.10;99.90
9237;DHT22;24579;42.810;23.214;2022-09-13T04:10:39;11.00;99.90
9237;DHT22;24579;42.810;23.214;2022-09-13T04:13:06;10.80;99.90
9237;DHT22;24579;42.810;23.214;2022-09-13T04:15:33;10.90;99.90
9237;DHT22;24579;42.810;23.214;2022-09-13T04:18:00;10.90;99.90
9237;DHT22;24579;42.810;23.214;2022-09-13T04:20:27;11.00;99.90
9237;DHT22;24579;42.810;23.214;2022-09-13T04:22:56;11.00;99.90
9237;DHT22;24579;42.810;23.214;2022-09-13T04:25:23;11.10;99.90
9237;DHT22;24579;42.810;23.214;2022-09-13T04:27:53;11.10;99.90
9237;DHT22;24579;42.810;23.214;2022-09-13T04:30:20;11.10;99.90
9237;DHT22;24579;42.810;23.214;2022-09-13T04:32:48;11.10;99.90
9237;DHT22;24579;42.810;23.214;2022-09-13T04:35:15;11.40;99.90
9237;DHT22;24579;42.810;23.214;2022-09-13T04:37:44;11.50;99.90
9237;DHT22;24579;42.810;23.214;2022-09-13T04:40:13;11.60;99.90
9237;DHT22;24579;42.810;23.214;2022-09-13T04:42:40;11.70;99.90
9237;DHT22;24579;42.810;23.214;2022-09-13T04:45:09;11.80;99.90
9237;DHT22;24579;42.810;23.214;2022-09-13T04:47:36;11.70;99.90
9237;DHT22;24579;42.810;23.214;2022-09-13T04:50:04;11.90;99.90
9237;DHT22;24579;42.810;23.214;2022-09-13T04:52:31;11.90;99.90
9237;DHT22;24579;42.810;23.214;2022-09-13T04:54:58;11.90;99.90
9237;DHT22;24579;42.810;23.214;2022-09-13T04:57:28;11.50;99.90
9237;DHT22;24579;42.810;23.214;2022-09-13T04:59:55;11.40;99.90
9237;DHT22;24579;42.810;23.214;2022-09-13T05:02:22;11.60;99.90
9237;DHT22;24579;42.810;23.214;2022-09-13T05:04:49;11.80;99.90
9237;DHT22;24579;42.810;23.214;2022-09-13T05:07:15;12.00;99.90
9237;DHT22;24579;42.810;23.214;2022-09-13T05:09:43;12.20;99.90
9237;DHT22;24579;42.810;23.214;2022-09-13T05:12:10;12.50;99.90
9237;DHT22;24579;42.810;23.214;2022-09-13T05:14:39;12.60;99.90
9237;DHT22;24579;42.810;23.214;2022-09-13T05:17:06;12.80;99.90
9237;DHT22;24579;42.810;23.214;2022-09-13T05:19:33;12.80;99.90
9237;DHT22;24579;42.810;23.214;2022-09-13T05:22:00;12.70;99.90
9237;DHT22;24579;42.810;23.214;2022-09-13T05:24:28;12.80;99.90
9237;DHT22;24579;42.810;23.214;2022-09-13T05:26:55;12.90;99.90
9237;DHT22;24579;42.810;23.214;2022-09-13T05:29:21;13.00;99.90
9237;DHT22;24579;42.810;23.214;2022-09-13T05:31:50;13.00;99.90
9237;DHT22;24579;42.810;23.214;2022-09-13T05:34:17;13.10;99.90
9237;DHT22;24579;42.810;23.214;2022-09-13T05:36:44;13.20;99.90
9237;DHT22;24579;42.810;23.214;2022-09-13T05:39:13;13.30;99.90
9237;DHT22;24579;42.810;23.214;2022-09-13T05:41:42;13.40;99.90
9237;DHT22;24579;42.810;23.214;2022-09-13T05:44:09;13.40;99.90
9237;DHT22;24579;42.810;23.214;2022-09-13T05:46:36;13.40;99.90
9237;DHT22;24579;42.810;23.214;2022-09-13T05:49:04;13.70;99.90
9237;DHT22;24579;42.810;23.214;2022-09-13T05:51:31;13.90;99.90
9237;DHT22;24579;42.810;23.214;2022-09-13T05:53:58;14.00;99.90
9237;DHT22;24579;42.810;23.214;2022-09-13T05:56:26;14.00;99.90
9237;DHT22;24579;42.810;23.214;2022-09-13T05:58:54;14.00;99.90
9237;DHT22;24579;42.810;23.214;2022-09-13T06:01:23;14.20;99.90
9237;DHT22;24579;42.810;23.214;2022-09-13T06:03:51;14.40;99.90
9237;DHT22;24579;42.810;23.214;2022-09-13T06:06:21;14.50;99.90
9237;DHT22;24579;42.810;23.214;2022-09-13T06:08:51;14.80;99.90
9237;DHT22;24579;42.810;23.214;2022-09-13T06:11:18;15.00;99.90
9237;DHT22;24579;42.810;23.214;2022-09-13T06:13:45;15.20;99.90
9237;DHT22;24579;42.810;23.214;2022-09-13T06:16:13;15.40;99.90
9237;DHT22;24579;42.810;23.214;2022-09-13T06:18:40;15.50;99.90
9237;DHT22;24579;42.810;23.214;2022-09-13T06:21:09;15.60;99.90
9237;DHT22;24579;42.810;23.214;2022-09-13T06:23:38;15.60;99.90
9237;DHT22;24579;42.810;23.214;2022-09-13T06:26:07;15.60;99.90
9237;DHT22;24579;42.810;23.214;2022-09-13T06:28:35;15.60;99.90
9237;DHT22;24579;42.810;23.214;2022-09-13T06:31:03;15.40;99.90
9237;DHT22;24579;42.810;23.214;2022-09-13T06:33:31;15.50;99.90
9237;DHT22;24579;42.810;23.214;2022-09-13T06:36:00;15.40;99.90
9237;DHT22;24579;42.810;23.214;2022-09-13T06:38:27;15.30;99.90
9237;DHT22;24579;42.810;23.214;2022-09-13T06:41:03;15.60;99.90
9237;DHT22;24579;42.810;23.214;2022-09-13T06:43:31;15.80;99.90
9237;DHT22;24579;42.810;23.214;2022-09-13T06:45:59;15.80;99.90
9237;DHT22;24579;42.810;23.214;2022-09-13T06:48:30;16.00;99.90
9237;DHT22;24579;42.810;23.214;2022-09-13T06:50:59;16.30;99.90
9237;DHT22;24579;42.810;23.214;2022-09-13T06:53:26;16.70;99.90
9237;DHT22;24579;42.810;23.214;2022-09-13T06:56:02;16.90;99.90
9237;DHT22;24579;42.810;23.214;2022-09-13T06:58:30;17.10;99.90
9237;DHT22;24579;42.810;23.214;2022-09-13T07:01:10;17.50;99.90
9237;DHT22;24579;42.810;23.214;2022-09-13T07:03:39;17.80;99.90
9237;DHT22;24579;42.810;23.214;2022-09-13T07:06:11;17.90;99.90
9237;DHT22;24579;42.810;23.214;2022-09-13T07:08:39;17.90;99.90
9237;DHT22;24579;42.810;23.214;2022-09-13T07:11:08;17.90;99.90
9237;DHT22;24579;42.810;23.214;2022-09-13T07:13:36;18.30;99.90
9237;DHT22;24579;42.810;23.214;2022-09-13T07:16:05;18.50;99.90
9237;DHT22;24579;42.810;23.214;2022-09-13T07:18:32;18.50;99.90
9237;DHT22;24579;42.810;23.214;2022-09-13T07:21:00;18.60;99.90
9237;DHT22;24579;42.810;23.214;2022-09-13T07:23:29;18.90;99.90
9237;DHT22;24579;42.810;23.214;2022-09-13T07:25:56;18.50;99.00
9237;DHT22;24579;42.810;23.214;2022-09-13T07:28:29;18.20;99.10
9237;DHT22;24579;42.810;23.214;2022-09-13T07:30:57;18.50;99.90
9237;DHT22;24579;42.810;23.214;2022-09-13T07:33:29;18.60;98.70
9237;DHT22;24579;42.810;23.214;2022-09-13T07:35:56;19.20;98.10
9237;DHT22;24579;42.810;23.214;2022-09-13T07:38:24;19.20;97.00
9237;DHT22;24579;42.810;23.214;2022-09-13T07:40:54;19.30;96.00
9237;DHT22;24579;42.810;23.214;2022-09-13T07:43:23;19.20;94.50
9237;DHT22;24579;42.810;23.214;2022-09-13T07:45:57;19.40;95.10
9237;DHT22;24579;42.810;23.214;2022-09-13T07:48:25;19.80;95.10
9237;DHT22;24579;42.810;23.214;2022-09-13T07:50:57;19.90;93.30
9237;DHT22;24579;42.810;23.214;2022-09-13T07:53:24;19.40;92.50
9237;DHT22;24579;42.810;23.214;2022-09-13T07:55:51;18.70;92.80
9237;DHT22;24579;42.810;23.214;2022-09-13T07:58:18;18.20;93.40
9237;DHT22;24579;42.810;23.214;2022-09-13T08:00:45;18.80;94.20
9237;DHT22;24579;42.810;23.214;2022-09-13T08:03:14;18.90;93.10
9237;DHT22;24579;42.810;23.214;2022-09-13T08:05:41;19.10;92.00
9237;DHT22;24579;42.810;23.214;2022-09-13T08:08:08;19.60;91.50
9237;DHT22;24579;42.810;23.214;2022-09-13T08:10:35;19.90;91.90
9237;DHT22;24579;42.810;23.214;2022-09-13T08:13:02;20.00;92.30
9237;DHT22;24579;42.810;23.214;2022-09-13T08:15:29;19.90;90.00
9237;DHT22;24579;42.810;23.214;2022-09-13T08:17:56;20.30;87.10
9237;DHT22;24579;42.810;23.214;2022-09-13T08:20:24;21.00;87.50
9237;DHT22;24579;42.810;23.214;2022-09-13T08:22:51;21.30;87.50
9237;DHT22;24579;42.810;23.214;2022-09-13T08:25:18;21.10;83.90
9237;DHT22;24579;42.810;23.214;2022-09-13T08:27:45;20.80;80.20
9237;DHT22;24579;42.810;23.214;2022-09-13T08:30:12;19.80;83.20
9237;DHT22;24579;42.810;23.214;2022-09-13T08:32:39;19.70;86.30
9237;DHT22;24579;42.810;23.214;2022-09-13T08:35:06;19.80;85.80
9237;DHT22;24579;42.810;23.214;2022-09-13T08:37:35;19.50;85.40
9237;DHT22;24579;42.810;23.214;2022-09-13T08:40:03;19.90;83.00
9237;DHT22;24579;42.810;23.214;2022-09-13T08:42:49;19.90;81.60
9237;DHT22;24579;42.810;23.214;2022-09-13T08:45:17;19.80;81.40
9237;DHT22;24579;42.810;23.214;2022-09-13T08:47:48;20.00;84.20
9237;DHT22;24579;42.810;23.214;2022-09-13T08:53:19;20.70;78.40
9237;DHT22;24579;42.810;23.214;2022-09-13T08:55:54;20.30;77.40
9237;DHT22;24579;42.810;23.214;2022-09-13T08:58:49;21.20;78.90
9237;DHT22;24579;42.810;23.214;2022-09-13T09:01:31;21.60;77.90
9237;DHT22;24579;42.810;23.214;2022-09-13T09:04:06;22.50;75.90
9237;DHT22;24579;42.810;23.214;2022-09-13T09:06:38;22.50;73.20
9237;DHT22;24579;42.810;23.214;2022-09-13T09:09:11;22.10;72.60
9237;DHT22;24579;42.810;23.214;2022-09-13T09:11:42;22.00;71.60
9237;DHT22;24579;42.810;23.214;2022-09-13T09:14:16;22.90;72.80
9237;DHT22;24579;42.810;23.214;2022-09-13T09:16:48;22.80;69.00
9237;DHT22;24579;42.810;23.214;2022-09-13T09:19:20;21.60;68.80
9237;DHT22;24579;42.810;23.214;2022-09-13T09:21:49;22.80;71.90
9237;DHT22;24579;42.810;23.214;2022-09-13T09:24:21;22.90;67.10
9237;DHT22;24579;42.810;23.214;2022-09-13T09:26:48;23.10;65.90
9237;DHT22;24579;42.810;23.214;2022-09-13T09:29:17;24.50;63.50
9237;DHT22;24579;42.810;23.214;2022-09-13T09:31:53;24.90;62.00
9237;DHT22;24579;42.810;23.214;2022-09-13T09:34:29;24.10;62.30
9237;DHT22;24579;42.810;23.214;2022-09-13T09:37:14;22.80;65.30
9237;DHT22;24579;42.810;23.214;2022-09-13T09:39:44;21.80;64.10
9237;DHT22;24579;42.810;23.214;2022-09-13T09:42:13;21.10;67.60
9237;DHT22;24579;42.810;23.214;2022-09-13T09:44:45;21.40;68.60
9237;DHT22;24579;42.810;23.214;2022-09-13T09:47:15;22.20;67.80
9237;DHT22;24579;42.810;23.214;2022-09-13T09:49:45;23.10;63.10
9237;DHT22;24579;42.810;23.214;2022-09-13T09:55:57;24.00;60.50
9237;DHT22;24579;42.810;23.214;2022-09-13T09:58:38;26.10;58.80
9237;DHT22;24579;42.810;23.214;2022-09-13T10:01:15;24.50;57.50
9237;DHT22;24579;42.810;23.214;2022-09-13T10:03:49;23.30;59.60
9237;DHT22;24579;42.810;23.214;2022-09-13T10:06:19;22.20;65.10
9237;DHT22;24579;42.810;23.214;2022-09-13T10:08:53;22.90;66.70
9237;DHT22;24579;42.810;23.214;2022-09-13T10:11:23;23.90;64.70
9237;DHT22;24579;42.810;23.214;2022-09-13T10:14:00;23.90;64.70
9237;DHT22;24579;42.810;23.214;2022-09-13T10:16:28;24.10;62.30
9237;DHT22;24579;42.810;23.214;2022-09-13T10:19:21;24.10;61.70
9237;DHT22;24579;42.810;23.214;2022-09-13T10:22:02;23.90;58.90
9237;DHT22;24579;42.810;23.214;2022-09-13T10:24:30;24.90;59.40
9237;DHT22;24579;42.810;23.214;2022-09-13T10:26:59;25.40;56.60
9237;DHT22;24579;42.810;23.214;2022-09-13T10:29:29;25.10;58.70
9237;DHT22;24579;42.810;23.214;2022-09-13T10:31:57;25.40;59.30
9237;DHT22;24579;42.810;23.214;2022-09-13T10:34:29;26.10;57.00
9237;DHT22;24579;42.810;23.214;2022-09-13T10:36:59;25.90;56.00
9237;DHT22;24579;42.810;23.214;2022-09-13T10:39:29;24.80;55.40
9237;DHT22;24579;42.810;23.214;2022-09-13T10:42:01;24.10;57.40
9237;DHT22;24579;42.810;23.214;2022-09-13T10:44:31;24.30;58.60
9237;DHT22;24579;42.810;23.214;2022-09-13T10:47:03;23.70;58.40
9237;DHT22;24579;42.810;23.214;2022-09-13T11:03:16;25.70;55.30
9237;DHT22;24579;42.810;23.214;2022-09-13T11:05:54;26.70;52.00
9237;DHT22;24579;42.810;23.214;2022-09-13T11:08:34;25.10;51.80
9237;DHT22;24579;42.810;23.214;2022-09-13T11:11:10;24.10;55.70
9237;DHT22;24579;42.810;23.214;2022-09-13T11:13:50;25.90;55.90
9237;DHT22;24579;42.810;23.214;2022-09-13T11:16:29;26.90;52.90
9237;DHT22;24579;42.810;23.214;2022-09-13T11:19:30;25.90;53.00
9237;DHT22;24579;42.810;23.214;2022-09-13T11:22:15;25.10;53.90
9237;DHT22;24579;42.810;23.214;2022-09-13T11:24:54;24.70;52.90
9237;DHT22;24579;42.810;23.214;2022-09-13T11:27:31;25.70;52.30
9237;DHT22;24579;42.810;23.214;2022-09-13T11:30:10;25.40;50.00
9237;DHT22;24579;42.810;23.214;2022-09-13T11:32:54;25.00;50.00
9237;DHT22;24579;42.810;23.214;2022-09-13T11:35:35;25.10;52.10
9237;DHT22;24579;42.810;23.214;2022-09-13T11:38:16;24.50;53.30
9237;DHT22;24579;42.810;23.214;2022-09-13T11:40:53;24.60;54.10
9237;DHT22;24579;42.810;23.214;2022-09-13T11:43:51;24.80;52.60
9237;DHT22;24579;42.810;23.214;2022-09-13T11:46:26;25.60;51.80
9237;DHT22;24579;42.810;23.214;2022-09-13T11:49:23;25.80;50.70
9237;DHT22;24579;42.810;23.214;2022-09-13T11:52:07;26.40;52.30
9237;DHT22;24579;42.810;23.214;2022-09-13T11:54:49;26.80;49.70
9237;DHT22;24579;42.810;23.214;2022-09-13T11:57:24;26.90;50.60
9237;DHT22;24579;42.810;23.214;2022-09-13T11:59:54;26.10;49.20
9237;DHT22;24579;42.810;23.214;2022-09-13T12:02:28;26.80;50.20
9237;DHT22;24579;42.810;23.214;2022-09-13T12:05:01;26.30;49.20
9237;DHT22;24579;42.810;23.214;2022-09-13T12:07:35;26.10;50.80
9237;DHT22;24579;42.810;23.214;2022-09-13T12:10:06;25.90;49.60
9237;DHT22;24579;42.810;23.214;2022-09-13T12:12:40;25.60;50.50
9237;DHT22;24579;42.810;23.214;2022-09-13T12:15:17;25.90;50.00
9237;DHT22;24579;42.810;23.214;2022-09-13T12:17:48;26.10;48.60
9237;DHT22;24579;42.810;23.214;2022-09-13T12:20:26;25.70;49.90
9237;DHT22;24579;42.810;23.214;2022-09-13T12:22:59;25.90;50.70
9237;DHT22;24579;42.810;23.214;2022-09-13T12:25:34;25.50;50.10
9237;DHT22;24579;42.810;23.214;2022-09-13T12:28:09;25.70;50.60
9237;DHT22;24579;42.810;23.214;2022-09-13T12:30:41;25.30;50.30
9237;DHT22;24579;42.810;23.214;2022-09-13T12:33:13;24.40;51.40
9237;DHT22;24579;42.810;23.214;2022-09-13T12:35:50;25.00;51.70
9237;DHT22;24579;42.810;23.214;2022-09-13T12:38:47;25.80;50.10
9237;DHT22;24579;42.810;23.214;2022-09-13T12:41:27;25.60;50.50
9237;DHT22;24579;42.810;23.214;2022-09-13T12:44:11;25.80;50.60
9237;DHT22;24579;42.810;23.214;2022-09-13T12:49:54;25.20;49.80
9237;DHT22;24579;42.810;23.214;2022-09-13T12:52:31;23.20;52.90
9237;DHT22;24579;42.810;23.214;2022-09-13T12:55:29;24.60;53.30
9237;DHT22;24579;42.810;23.214;2022-09-13T12:58:07;24.80;51.10
9237;DHT22;24579;42.810;23.214;2022-09-13T13:00:44;25.50;51.10
9237;DHT22;24579;42.810;23.214;2022-09-13T13:03:16;25.60;50.50
9237;DHT22;24579;42.810;23.214;2022-09-13T13:05:46;26.00;48.90
9237;DHT22;24579;42.810;23.214;2022-09-13T13:08:25;25.30;49.50
9237;DHT22;24579;42.810;23.214;2022-09-13T13:11:03;24.90;48.50
9237;DHT22;24579;42.810;23.214;2022-09-13T13:13:34;25.10;50.00
9237;DHT22;24579;42.810;23.214;2022-09-13T13:16:19;24.50;52.10
9237;DHT22;24579;42.810;23.214;2022-09-13T13:18:47;23.00;53.90
9237;DHT22;24579;42.810;23.214;2022-09-13T13:21:30;23.60;54.60
9237;DHT22;24579;42.810;23.214;2022-09-13T13:27:39;25.50;50.90
9237;DHT22;24579;42.810;23.214;2022-09-13T13:30:39;25.30;49.20
9237;DHT22;24579;42.810;23.214;2022-09-13T13:36:20;25.30;49.60
9237;DHT22;24579;42.810;23.214;2022-09-13T13:38:48;25.60;51.50
9237;DHT22;24579;42.810;23.214;2022-09-13T13:41:38;25.70;50.70
9237;DHT22;24579;42.810;23.214;2022-09-13T13:47:51;25.30;51.50
9237;DHT22;24579;42.810;23.214;2022-09-13T13:50:20;25.80;48.90
9237;DHT22;24579;42.810;23.214;2022-09-13T13:52:56;25.80;48.20
9237;DHT22;24579;42.810;23.214;2022-09-13T13:55:39;25.80;48.90
9237;DHT22;24579;42.810;23.214;2022-09-13T14:00:54;25.10;51.40
9237;DHT22;24579;42.810;23.214;2022-09-13T14:03:31;26.00;49.60
9237;DHT22;24579;42.810;23.214;2022-09-13T14:06:09;25.90;49.50
9237;DHT22;24579;42.810;23.214;2022-09-13T14:08:45;25.40;51.00
9237;DHT22;24579;42.810;23.214;2022-09-13T14:11:24;25.20;50.90
9237;DHT22;24579;42.810;23.214;2022-09-13T14:14:06;25.00;50.20
9237;DHT22;24579;42.810;23.214;2022-09-13T14:16:48;24.50;50.70
9237;DHT22;24579;42.810;23.214;2022-09-13T14:19:26;24.40;51.70
9237;DHT22;24579;42.810;23.214;2022-09-13T14:22:14;24.90;51.50
9237;DHT22;24579;42.810;23.214;2022-09-13T14:24:43;24.90;50.10
9237;DHT22;24579;42.810;23.214;2022-09-13T14:27:15;24.50;50.30
9237;DHT22;24579;42.810;23.214;2022-09-13T14:29:47;24.30;50.70
9237;DHT22;24579;42.810;23.214;2022-09-13T14:32:18;25.50;50.50
9237;DHT22;24579;42.810;23.214;2022-09-13T14:34:55;25.80;49.60
9237;DHT22;24579;42.810;23.214;2022-09-13T14:37:26;25.50;49.40
9237;DHT22;24579;42.810;23.214;2022-09-13T14:39:59;25.10;50.80
9237;DHT22;24579;42.810;23.214;2022-09-13T14:42:37;25.10;50.80
9237;DHT22;24579;42.810;23.214;2022-09-13T14:45:05;24.40;50.50
9237;DHT22;24579;42.810;23.214;2022-09-13T14:47:45;23.90;50.70
9237;DHT22;24579;42.810;23.214;2022-09-13T14:50:17;24.30;52.10
9237;DHT22;24579;42.810;23.214;2022-09-13T14:52:47;24.70;51.50
9237;DHT22;24579;42.810;23.214;2022-09-13T14:55:18;24.00;52.10
9237;DHT22;24579;42.810;23.214;2022-09-13T14:57:47;23.80;51.90
9237;DHT22;24579;42.810;23.214;2022-09-13T15:00:17;23.70;52.80
9237;DHT22;24579;42.810;23.214;2022-09-13T15:02:48;23.20;52.80
9237;DHT22;24579;42.810;23.214;2022-09-13T15:05:21;23.00;52.60
9237;DHT22;24579;42.810;23.214;2022-09-13T15:07:49;22.80;53.30
9237;DHT22;24579;42.810;23.214;2022-09-13T15:10:23;22.70;54.10
9237;DHT22;24579;42.810;23.214;2022-09-13T15:12:53;23.00;55.10
9237;DHT22;24579;42.810;23.214;2022-09-13T15:15:23;23.00;55.00
9237;DHT22;24579;42.810;23.214;2022-09-13T15:17:54;22.40;54.90
9237;DHT22;24579;42.810;23.214;2022-09-13T15:20:24;22.50;55.60
9237;DHT22;24579;42.810;23.214;2022-09-13T15:22:52;23.00;55.30
9237;DHT22;24579;42.810;23.214;2022-09-13T15:25:22;23.20;54.40
9237;DHT22;24579;42.810;23.214;2022-09-13T15:27:51;23.00;52.60
9237;DHT22;24579;42.810;23.214;2022-09-13T15:30:21;22.70;54.20
9237;DHT22;24579;42.810;23.214;2022-09-13T15:32:48;22.50;55.50
9237;DHT22;24579;42.810;23.214;2022-09-13T15:35:17;22.40;54.60
9237;DHT22;24579;42.810;23.214;2022-09-13T15:37:46;22.50;56.90
9237;DHT22;24579;42.810;23.214;2022-09-13T15:40:18;22.30;54.40
9237;DHT22;24579;42.810;23.214;2022-09-13T15:42:51;22.60;55.40
9237;DHT22;24579;42.810;23.214;2022-09-13T15:45:19;22.20;54.50
9237;DHT22;24579;42.810;23.214;2022-09-13T15:47:47;22.30;53.90
9237;DHT22;24579;42.810;23.214;2022-09-13T15:50:26;21.70;53.80
9237;DHT22;24579;42.810;23.214;2022-09-13T15:52:57;21.60;55.00
9237;DHT22;24579;42.810;23.214;2022-09-13T15:55:26;21.80;55.90
9237;DHT22;24579;42.810;23.214;2022-09-13T15:57:54;22.00;55.50
9237;DHT22;24579;42.810;23.214;2022-09-13T16:00:22;22.00;55.80
9237;DHT22;24579;42.810;23.214;2022-09-13T16:02:50;22.00;55.60
9237;DHT22;24579;42.810;23.214;2022-09-13T16:05:18;21.80;56.70
9237;DHT22;24579;42.810;23.214;2022-09-13T16:07:45;21.70;56.50
9237;DHT22;24579;42.810;23.214;2022-09-13T16:10:15;21.30;57.20
9237;DHT22;24579;42.810;23.214;2022-09-13T16:12:43;21.10;57.80
9237;DHT22;24579;42.810;23.214;2022-09-13T16:15:10;20.90;58.20
9237;DHT22;24579;42.810;23.214;2022-09-13T16:17:38;21.10;58.50
9237;DHT22;24579;42.810;23.214;2022-09-13T16:20:06;20.60;58.90
9237;DHT22;24579;42.810;23.214;2022-09-13T16:22:34;20.90;59.30
9237;DHT22;24579;42.810;23.214;2022-09-13T16:25:01;21.00;59.00
9237;DHT22;24579;42.810;23.214;2022-09-13T16:27:29;20.70;59.10
9237;DHT22;24579;42.810;23.214;2022-09-13T16:29:57;20.70;59.50
9237;DHT22;24579;42.810;23.214;2022-09-13T16:32:24;20.30;60.20
9237;DHT22;24579;42.810;23.214;2022-09-13T16:34:51;20.30;60.30
9237;DHT22;24579;42.810;23.214;2022-09-13T16:37:18;20.30;60.10
9237;DHT22;24579;42.810;23.214;2022-09-13T16:39:45;20.10;60.80
9237;DHT22;24579;42.810;23.214;2022-09-13T16:42:14;20.10;60.90
9237;DHT22;24579;42.810;23.214;2022-09-13T16:44:43;20.00;61.40
9237;DHT22;24579;42.810;23.214;2022-09-13T16:47:10;20.10;61.80